createdAt,value
2023-04-17T00:02:01.559Z,28.02
2023-04-17T00:06:04.249Z,28.08
2023-04-17T00:10:10.481Z,27.67
2023-04-17T00:14:12.462Z,27.98
2023-04-17T00:18:14.572Z,27.85
2023-04-17T00:22:16.614Z,29.15
2023-04-17T00:26:19.663Z,28.35
2023-04-17T00:30:21.745Z,26.27
2023-04-17T00:34:23.761Z,29.30
2023-04-17T00:38:26.227Z,27.88
2023-04-17T00:42:28.421Z,28.00
2023-04-17T00:46:31.379Z,26.48
2023-04-17T00:50:33.605Z,27.73
2023-04-17T00:54:35.985Z,29.33
2023-04-17T00:58:38.235Z,24.63
2023-04-17T01:02:41.004Z,24.55
2023-04-17T01:06:43.235Z,26.90
2023-04-17T01:10:45.914Z,27.08
2023-04-17T01:14:50.867Z,27.10
2023-04-17T01:18:52.961Z,26.35
2023-04-17T01:22:54.927Z,27.92
2023-04-17T01:26:57.065Z,26.63
2023-04-17T01:30:59.302Z,26.70
2023-04-17T01:35:02.186Z,30.02
2023-04-17T01:39:04.357Z,25.83
2023-04-17T01:43:07.030Z,27.00
2023-04-17T01:47:09.113Z,25.90
2023-04-17T01:51:11.248Z,27.08
2023-04-17T01:55:13.357Z,30.92
2023-04-17T01:59:15.796Z,26.77
2023-04-17T02:03:18.296Z,25.73
2023-04-17T02:07:20.699Z,29.02
2023-04-17T02:11:22.748Z,30.55
2023-04-17T02:15:26.245Z,30.27
2023-04-17T02:19:28.246Z,28.35
2023-04-17T02:23:30.250Z,29.38
2023-04-17T02:27:32.618Z,28.45
2023-04-17T02:31:34.664Z,29.98
2023-04-17T02:35:36.855Z,27.50
2023-04-17T02:39:39.139Z,28.45
2023-04-17T02:43:41.188Z,29.90
2023-04-17T02:47:45.095Z,31.05
2023-04-17T02:51:47.732Z,31.13
2023-04-17T02:55:49.790Z,28.90
2023-04-17T02:59:54.231Z,31.38
2023-04-17T03:03:56.896Z,31.52
2023-04-17T03:07:59.638Z,30.02
2023-04-17T03:12:06.136Z,30.60
2023-04-17T03:16:08.563Z,31.05
2023-04-17T03:20:12.884Z,30.80
2023-04-17T03:24:14.877Z,34.13
2023-04-17T03:28:16.944Z,33.75
2023-04-17T03:32:19.597Z,34.42
2023-04-17T03:36:21.641Z,35.83
2023-04-17T03:40:23.961Z,35.67
2023-04-17T03:44:26.044Z,33.55
2023-04-17T03:48:28.493Z,35.95
2023-04-17T03:52:30.688Z,35.53
2023-04-17T03:56:34.194Z,35.58
2023-04-17T04:00:37.440Z,35.05
2023-04-17T04:04:43.649Z,34.08
2023-04-17T04:08:49.638Z,33.75
2023-04-17T04:12:52.273Z,35.35
2023-04-17T04:16:54.934Z,34.95
2023-04-17T04:20:57.026Z,34.53
2023-04-17T04:25:04.211Z,31.85
2023-04-17T04:29:25.579Z,32.90
2023-04-17T04:33:35.881Z,31.10
2023-04-17T04:37:38.298Z,29.58
2023-04-17T04:41:46.185Z,31.45
2023-04-17T04:45:49.417Z,32.33
2023-04-17T04:49:52.168Z,29.63
2023-04-17T04:53:56.643Z,28.90
2023-04-17T04:57:59.463Z,28.35
2023-04-17T05:02:02.536Z,27.45
2023-04-17T05:06:04.741Z,28.05
2023-04-17T05:10:14.433Z,27.65
2023-04-17T05:14:22.704Z,25.98
2023-04-17T05:18:25.041Z,27.75
2023-04-17T05:22:27.589Z,26.02
2023-04-17T05:26:44.037Z,26.00
2023-04-17T05:30:46.197Z,25.85
2023-04-17T05:34:57.848Z,26.60
2023-04-17T05:39:02.373Z,29.45
2023-04-17T05:43:09.847Z,29.25
2023-04-17T05:47:12.904Z,26.58
2023-04-17T05:51:15.011Z,31.27
2023-04-17T05:55:20.002Z,29.92
2023-04-17T05:59:25.351Z,30.20
2023-04-17T06:03:28.162Z,29.65
2023-04-17T06:07:53.597Z,27.48
2023-04-17T06:11:57.203Z,26.92
2023-04-17T06:15:59.290Z,23.45
2023-04-17T06:20:01.331Z,24.98
2023-04-17T06:24:03.904Z,24.40
2023-04-17T06:28:05.975Z,21.83
2023-04-17T06:32:08.180Z,22.75
2023-04-17T06:36:12.027Z,21.25
2023-04-17T06:40:23.578Z,21.35
2023-04-17T06:44:27.139Z,21.17
2023-04-17T06:48:30.015Z,21.10
2023-04-17T06:52:32.011Z,22.00
2023-04-17T06:56:34.156Z,18.48
2023-04-17T07:00:36.431Z,18.70
2023-04-17T07:04:38.622Z,20.15
2023-04-17T07:08:40.649Z,18.50
2023-04-17T07:12:42.774Z,19.58
2023-04-17T07:16:44.886Z,18.92
2023-04-17T07:20:47.913Z,19.60
2023-04-17T07:24:50.062Z,17.70
2023-04-17T07:28:52.135Z,18.23
2023-04-17T07:32:54.305Z,17.30
2023-04-17T07:36:56.718Z,18.50
2023-04-17T07:40:59.150Z,18.30
2023-04-17T07:45:01.268Z,18.48
2023-04-17T07:49:03.322Z,18.77
2023-04-17T07:53:05.561Z,17.55
2023-04-17T07:57:08.242Z,18.75
2023-04-17T08:01:10.651Z,17.98
2023-04-17T08:05:12.753Z,18.52
2023-04-17T08:09:14.819Z,18.38
2023-04-17T08:13:16.814Z,19.13
2023-04-17T08:17:22.965Z,16.60
2023-04-17T08:21:25.083Z,16.58
2023-04-17T08:25:27.585Z,16.35
2023-04-17T08:29:29.603Z,14.73
2023-04-17T08:33:31.767Z,15.90
2023-04-17T08:37:35.970Z,16.60
2023-04-17T08:42:00.405Z,16.77
2023-04-17T08:46:03.517Z,14.98
2023-04-17T08:50:14.060Z,15.57
2023-04-17T08:54:16.095Z,13.98
2023-04-17T08:58:18.198Z,14.98
2023-04-17T09:02:20.784Z,17.05
2023-04-17T09:06:23.098Z,15.88
2023-04-17T09:10:35.806Z,16.45
2023-04-17T09:14:37.848Z,17.65
2023-04-17T09:18:42.554Z,16.17
2023-04-17T09:22:44.717Z,15.65
2023-04-17T09:26:46.679Z,13.50
2023-04-17T09:30:48.768Z,15.18
2023-04-17T09:34:51.125Z,14.10
2023-04-17T09:38:53.897Z,15.93
2023-04-17T09:43:02.089Z,13.70
2023-04-17T09:47:05.054Z,15.02
2023-04-17T09:51:07.747Z,14.60
2023-04-17T09:55:11.778Z,14.23
2023-04-17T09:59:14.871Z,14.77
2023-04-17T10:03:17.886Z,13.27
2023-04-17T10:07:20.144Z,13.25
2023-04-17T10:11:29.914Z,13.20
2023-04-17T10:15:33.780Z,13.02
2023-04-17T10:19:36.716Z,14.05
2023-04-17T10:23:40.051Z,13.93
2023-04-17T10:27:42.948Z,13.20
2023-04-17T10:32:07.189Z,15.75
2023-04-17T10:36:38.394Z,13.05
2023-04-17T10:40:43.560Z,13.07
2023-04-17T10:44:46.619Z,14.32
2023-04-17T10:48:53.139Z,13.98
2023-04-17T10:52:55.531Z,13.25
2023-04-17T10:56:58.448Z,12.25
2023-04-17T11:01:09.353Z,12.00
2023-04-17T11:05:12.701Z,12.80
2023-04-17T11:09:16.131Z,11.93
2023-04-17T11:13:18.647Z,12.15
2023-04-17T11:17:21.474Z,11.20
2023-04-17T11:21:23.579Z,10.18
2023-04-17T11:25:27.840Z,11.13
2023-04-17T11:29:29.927Z,9.65
2023-04-17T11:33:36.910Z,11.02
2023-04-17T11:38:04.813Z,9.23
2023-04-17T11:42:06.816Z,9.15
2023-04-17T11:46:08.808Z,9.93
2023-04-17T11:50:11.096Z,8.98
2023-04-17T11:54:29.887Z,8.82
2023-04-17T11:58:32.037Z,9.02
2023-04-17T12:02:34.221Z,9.23
2023-04-17T12:06:37.807Z,9.45
2023-04-17T12:10:42.170Z,10.60
2023-04-17T12:14:44.281Z,9.35
2023-04-17T12:18:46.399Z,10.57
2023-04-17T12:22:48.703Z,9.20
2023-04-17T12:26:51.766Z,9.30
2023-04-17T12:30:53.880Z,8.55
2023-04-17T12:34:56.306Z,9.48
2023-04-17T12:38:58.452Z,7.55
2023-04-17T12:43:00.760Z,7.82
2023-04-17T12:47:02.841Z,7.63
2023-04-17T12:51:04.970Z,8.13
2023-04-17T12:55:08.494Z,7.35
2023-04-17T12:59:10.949Z,5.68
2023-04-17T13:03:13.425Z,6.78
2023-04-17T13:07:15.489Z,5.50
2023-04-17T13:11:17.608Z,5.07
2023-04-17T13:15:19.923Z,5.80
2023-04-17T13:19:22.037Z,5.70
2023-04-17T13:23:24.176Z,6.20
2023-04-17T13:27:26.583Z,5.82
2023-04-17T13:31:28.655Z,7.18
2023-04-17T13:35:31.026Z,5.95
2023-04-17T13:39:33.088Z,6.38
2023-04-17T13:43:35.139Z,6.07
2023-04-17T13:47:37.302Z,5.90
2023-04-17T13:51:39.452Z,5.70
2023-04-17T13:55:41.510Z,5.78
2023-04-17T13:59:43.716Z,6.10
2023-04-17T14:03:46.420Z,6.25
2023-04-17T14:07:48.630Z,6.10
2023-04-17T14:11:50.629Z,5.97
2023-04-17T14:15:54.739Z,7.30
2023-04-17T14:19:56.833Z,5.93
2023-04-17T14:23:58.846Z,6.22
2023-04-17T14:28:00.882Z,6.78
2023-04-17T14:32:03.040Z,6.50
2023-04-17T14:36:06.050Z,6.38
2023-04-17T14:40:08.656Z,6.90
2023-04-17T14:44:10.898Z,6.53
2023-04-17T14:48:13.709Z,7.85
2023-04-17T14:52:15.767Z,7.07
2023-04-17T14:56:18.031Z,6.85
2023-04-17T15:00:20.902Z,7.57
2023-04-17T15:04:23.098Z,7.40
2023-04-17T15:08:25.655Z,7.13
2023-04-17T15:12:28.066Z,7.30
2023-04-17T15:16:30.694Z,7.70
2023-04-17T15:20:34.073Z,6.90
2023-04-17T15:24:37.193Z,7.63
2023-04-17T15:28:40.053Z,6.95
2023-04-17T15:32:42.664Z,7.30
2023-04-17T15:36:44.801Z,6.72
2023-04-17T15:40:46.847Z,7.72
2023-04-17T15:44:49.357Z,6.53
2023-04-17T15:49:04.981Z,7.50
2023-04-17T15:53:10.692Z,8.43
2023-04-17T15:57:12.756Z,7.18
2023-04-17T16:01:14.812Z,8.35
2023-04-17T16:05:17.260Z,7.60
2023-04-17T16:09:23.822Z,8.38
2023-04-17T16:13:25.960Z,7.93
2023-04-17T16:17:28.135Z,8.18
2023-04-17T16:21:30.805Z,7.85
2023-04-17T16:25:32.941Z,7.82
2023-04-17T16:29:35.450Z,7.05
2023-04-17T16:33:39.638Z,7.55
2023-04-17T16:37:41.856Z,7.13
2023-04-17T16:41:43.892Z,6.18
2023-04-17T16:45:46.236Z,5.88
2023-04-17T16:49:48.325Z,6.32
2023-04-17T16:53:50.816Z,6.38
2023-04-17T16:57:53.118Z,6.15
2023-04-17T17:01:55.435Z,6.22
2023-04-17T17:05:57.621Z,5.85
2023-04-17T17:10:00.131Z,5.88
2023-04-17T17:14:02.361Z,6.32
2023-04-17T17:18:04.825Z,6.50
2023-04-17T17:22:06.916Z,6.40
2023-04-17T17:26:09.210Z,6.97
2023-04-17T17:30:12.771Z,7.68
2023-04-17T17:38:19.989Z,7.10
2023-04-17T17:42:22.958Z,7.38
2023-04-17T17:46:30.589Z,6.43
2023-04-17T17:50:32.721Z,7.05
2023-04-17T17:54:36.855Z,6.72
2023-04-17T17:58:38.969Z,6.60
2023-04-17T18:02:41.174Z,7.25
2023-04-17T18:06:43.608Z,8.02
2023-04-17T18:10:47.433Z,8.10
2023-04-17T18:14:49.897Z,8.50
2023-04-17T18:18:51.925Z,8.27
2023-04-17T18:22:54.331Z,9.63
2023-04-17T18:26:57.182Z,9.80
2023-04-17T18:30:59.164Z,9.50
2023-04-17T18:35:04.022Z,9.13
2023-04-17T18:39:06.335Z,9.25
2023-04-17T18:43:10.142Z,9.40
2023-04-17T18:47:12.316Z,9.40
2023-04-17T18:51:14.918Z,11.23
2023-04-17T18:55:17.537Z,10.05
2023-04-17T18:59:21.314Z,8.90
2023-04-17T19:03:23.485Z,7.32
2023-04-17T19:07:26.064Z,8.50
2023-04-17T19:11:28.979Z,8.60
2023-04-17T19:15:31.099Z,8.95
2023-04-17T19:19:33.139Z,8.77
2023-04-17T19:23:36.953Z,9.15
2023-04-17T19:27:39.168Z,10.40
2023-04-17T19:31:41.539Z,12.02
2023-04-17T19:35:44.609Z,11.98
2023-04-17T19:39:46.648Z,11.82
2023-04-17T19:43:50.815Z,11.80
2023-04-17T19:47:56.965Z,13.05
2023-04-17T19:52:00.896Z,12.48
2023-04-17T19:56:08.489Z,12.73
2023-04-17T20:00:12.049Z,12.80
2023-04-17T20:04:18.858Z,12.83
2023-04-17T20:08:21.281Z,13.75
2023-04-17T20:12:23.456Z,13.00
2023-04-17T20:16:25.532Z,13.63
2023-04-17T20:20:27.657Z,13.52
2023-04-17T20:24:29.647Z,13.63
2023-04-17T20:28:31.839Z,13.80
2023-04-17T20:32:33.832Z,14.75
2023-04-17T20:36:35.934Z,15.63
2023-04-17T20:40:38.089Z,14.43
2023-04-17T20:44:40.434Z,16.02
2023-04-17T20:48:42.787Z,14.48
2023-04-17T20:52:44.845Z,16.52
2023-04-17T20:56:47.263Z,16.45
2023-04-17T21:01:00.653Z,16.60
2023-04-17T21:05:06.255Z,14.48
2023-04-17T21:09:08.924Z,16.52
2023-04-17T21:13:10.981Z,15.73
2023-04-17T21:17:13.104Z,18.42
2023-04-17T21:21:15.046Z,16.95
2023-04-17T21:25:17.131Z,18.58
2023-04-17T21:29:19.202Z,16.05
2023-04-17T21:33:21.316Z,18.40
2023-04-17T21:37:23.261Z,17.50
2023-04-17T21:41:26.063Z,19.40
2023-04-17T21:45:28.021Z,17.92
2023-04-17T21:49:30.036Z,19.48
2023-04-17T21:53:36.466Z,20.88
2023-04-17T21:57:39.356Z,21.13
2023-04-17T22:01:41.366Z,22.08
2023-04-17T22:05:44.029Z,20.45
2023-04-17T22:09:46.014Z,21.48
2023-04-17T22:13:48.160Z,22.42
2023-04-17T22:17:50.640Z,22.27
2023-04-17T22:21:52.777Z,25.10
2023-04-17T22:25:54.683Z,23.80
2023-04-17T22:29:56.839Z,22.92
2023-04-17T22:33:59.160Z,23.70
2023-04-17T22:38:01.236Z,23.23
2023-04-17T22:42:03.281Z,24.05
2023-04-17T22:46:05.341Z,24.55
2023-04-17T22:50:08.168Z,23.13
2023-04-17T22:54:21.518Z,24.27
2023-04-17T22:58:24.935Z,26.05
2023-04-17T23:02:27.043Z,24.58
2023-04-17T23:06:29.143Z,24.73
2023-04-17T23:10:31.553Z,29.00
2023-04-17T23:14:33.805Z,30.25
2023-04-17T23:18:37.305Z,27.90
2023-04-17T23:22:39.321Z,29.00
2023-04-17T23:26:41.915Z,26.60
2023-04-17T23:30:43.914Z,27.10
2023-04-17T23:34:45.888Z,27.30
2023-04-17T23:38:47.903Z,27.42
2023-04-17T23:42:50.029Z,25.83
2023-04-17T23:46:52.044Z,25.48
2023-04-17T23:50:54.311Z,25.95
2023-04-17T23:54:56.673Z,24.65
2023-04-17T23:58:58.809Z,27.27
